CheckWX is a tool to help pilots better visualize weather data.  It is not intended as a substitute for an official pre-flight weather briefing.

02:54:23 UTC

CYXS METAR
Prince George Airport
Prince George, Canada
Current

54 mins ago

CYXS 240200Z AUTO 31002KT 9SM CLR 05/M01 A3016 RMK SLP239
Observed
Mar-24 @ 02:00 UTC
Wind
  • 310° at 2 KTS
Visibility
9 SM
Flight Rules
VFR
Cloud Levels
  • Clear skies
Temperature
C / 41°F
Dewpoint
-1°C / 30°F
Humidity
66%
Altimeter
30.16" Hg
Pressure
1023.9 hPa
Previous

2 hours ago

CYXS 240100Z AUTO 00000KT 9SM CLR 08/M01 A3016 RMK SLP236
Observed
Mar-24 @ 01:00 UTC
Visibility
9 SM
Flight Rules
VFR
Cloud Levels
  • Clear skies
Temperature
C / 46°F
Dewpoint
-1°C / 30°F
Humidity
53%
Altimeter
30.16" Hg
Pressure
1023.6 hPa
Previous

3 hours ago

CYXS 240000Z AUTO 00000KT 9SM CLR 07/M01 A3015 RMK SLP236
Observed
Mar-24 @ 00:00 UTC
Visibility
9 SM
Flight Rules
VFR
Cloud Levels
  • Clear skies
Temperature
C / 45°F
Dewpoint
-1°C / 30°F
Humidity
57%
Altimeter
30.15" Hg
Pressure
1023.6 hPa